sensor_id;sensor_type;location;lat;lon;timestamp;P1;durP1;ratioP1;P2;durP2;ratioP2
16173;SDS011;14031;50.158;8.626;2023-06-10T00:01:14;9.35;;;6.35;;
16173;SDS011;14031;50.158;8.626;2023-06-10T00:03:41;6.45;;;6.05;;
16173;SDS011;14031;50.158;8.626;2023-06-10T00:06:10;6.97;;;6.55;;
16173;SDS011;14031;50.158;8.626;2023-06-10T00:08:37;8.60;;;7.82;;
16173;SDS011;14031;50.158;8.626;2023-06-10T00:11:04;8.35;;;7.65;;
16173;SDS011;14031;50.158;8.626;2023-06-10T00:13:31;7.93;;;7.28;;
16173;SDS011;14031;50.158;8.626;2023-06-10T00:15:58;7.95;;;7.45;;
16173;SDS011;14031;50.158;8.626;2023-06-10T00:18:25;7.78;;;7.18;;
16173;SDS011;14031;50.158;8.626;2023-06-10T00:20:54;7.78;;;7.28;;
16173;SDS011;14031;50.158;8.626;2023-06-10T00:23:24;7.68;;;7.18;;
16173;SDS011;14031;50.158;8.626;2023-06-10T00:25:50;6.93;;;6.43;;
16173;SDS011;14031;50.158;8.626;2023-06-10T00:28:17;7.07;;;6.65;;
16173;SDS011;14031;50.158;8.626;2023-06-10T00:30:44;7.07;;;6.40;;
16173;SDS011;14031;50.158;8.626;2023-06-10T00:33:11;6.88;;;6.47;;
16173;SDS011;14031;50.158;8.626;2023-06-10T00:35:37;7.57;;;7.07;;
16173;SDS011;14031;50.158;8.626;2023-06-10T00:38:05;7.00;;;6.50;;
16173;SDS011;14031;50.158;8.626;2023-06-10T00:40:35;8.07;;;7.45;;
16173;SDS011;14031;50.158;8.626;2023-06-10T00:43:05;6.70;;;6.30;;
16173;SDS011;14031;50.158;8.626;2023-06-10T00:45:32;7.40;;;6.80;;
16173;SDS011;14031;50.158;8.626;2023-06-10T00:47:59;7.15;;;6.47;;
16173;SDS011;14031;50.158;8.626;2023-06-10T00:50:27;7.35;;;6.85;;
16173;SDS011;14031;50.158;8.626;2023-06-10T00:52:54;6.85;;;6.35;;
16173;SDS011;14031;50.158;8.626;2023-06-10T00:55:22;7.47;;;7.07;;
16173;SDS011;14031;50.158;8.626;2023-06-10T00:57:51;7.18;;;6.75;;
16173;SDS011;14031;50.158;8.626;2023-06-10T01:00:18;7.18;;;6.75;;
16173;SDS011;14031;50.158;8.626;2023-06-10T01:02:45;7.65;;;7.00;;
16173;SDS011;14031;50.158;8.626;2023-06-10T01:05:12;7.50;;;6.90;;
16173;SDS011;14031;50.158;8.626;2023-06-10T01:07:40;8.05;;;7.32;;
16173;SDS011;14031;50.158;8.626;2023-06-10T01:10:15;7.20;;;6.80;;
16173;SDS011;14031;50.158;8.626;2023-06-10T01:12:46;8.25;;;7.40;;
16173;SDS011;14031;50.158;8.626;2023-06-10T01:15:21;7.70;;;6.90;;
16173;SDS011;14031;50.158;8.626;2023-06-10T01:17:55;7.40;;;6.90;;
16173;SDS011;14031;50.158;8.626;2023-06-10T01:20:23;8.07;;;7.45;;
16173;SDS011;14031;50.158;8.626;2023-06-10T01:22:53;7.75;;;7.25;;
16173;SDS011;14031;50.158;8.626;2023-06-10T01:25:20;7.65;;;7.25;;
16173;SDS011;14031;50.158;8.626;2023-06-10T01:27:53;7.75;;;7.18;;
16173;SDS011;14031;50.158;8.626;2023-06-10T01:30:26;7.75;;;7.25;;
16173;SDS011;14031;50.158;8.626;2023-06-10T01:32:58;8.88;;;8.00;;
16173;SDS011;14031;50.158;8.626;2023-06-10T01:35:27;8.05;;;7.47;;
16173;SDS011;14031;50.158;8.626;2023-06-10T01:37:56;8.20;;;7.47;;
16173;SDS011;14031;50.158;8.626;2023-06-10T01:40:24;8.57;;;7.93;;
16173;SDS011;14031;50.158;8.626;2023-06-10T01:42:52;8.20;;;7.57;;
16173;SDS011;14031;50.158;8.626;2023-06-10T01:45:19;8.80;;;7.75;;
16173;SDS011;14031;50.158;8.626;2023-06-10T01:47:46;7.80;;;7.25;;
16173;SDS011;14031;50.158;8.626;2023-06-10T01:50:13;8.45;;;7.68;;
16173;SDS011;14031;50.158;8.626;2023-06-10T01:52:40;7.80;;;7.25;;
16173;SDS011;14031;50.158;8.626;2023-06-10T01:55:08;7.47;;;6.97;;
16173;SDS011;14031;50.158;8.626;2023-06-10T01:57:34;7.43;;;6.85;;
16173;SDS011;14031;50.158;8.626;2023-06-10T02:00:01;7.13;;;6.63;;
16173;SDS011;14031;50.158;8.626;2023-06-10T02:02:29;7.43;;;7.00;;
16173;SDS011;14031;50.158;8.626;2023-06-10T02:04:56;8.02;;;7.22;;
16173;SDS011;14031;50.158;8.626;2023-06-10T02:07:22;7.38;;;6.85;;
16173;SDS011;14031;50.158;8.626;2023-06-10T02:09:49;7.80;;;7.20;;
16173;SDS011;14031;50.158;8.626;2023-06-10T02:12:17;8.27;;;7.60;;
16173;SDS011;14031;50.158;8.626;2023-06-10T02:14:44;7.55;;;7.05;;
16173;SDS011;14031;50.158;8.626;2023-06-10T02:17:11;8.15;;;7.35;;
16173;SDS011;14031;50.158;8.626;2023-06-10T02:19:39;7.03;;;6.63;;
16173;SDS011;14031;50.158;8.626;2023-06-10T02:22:08;8.00;;;7.20;;
16173;SDS011;14031;50.158;8.626;2023-06-10T02:24:35;7.35;;;6.88;;
16173;SDS011;14031;50.158;8.626;2023-06-10T02:27:03;7.90;;;7.28;;
16173;SDS011;14031;50.158;8.626;2023-06-10T02:29:33;7.47;;;6.97;;
16173;SDS011;14031;50.158;8.626;2023-06-10T02:32:00;7.40;;;6.85;;
16173;SDS011;14031;50.158;8.626;2023-06-10T02:34:27;8.13;;;7.38;;
16173;SDS011;14031;50.158;8.626;2023-06-10T02:36:54;7.70;;;7.05;;
16173;SDS011;14031;50.158;8.626;2023-06-10T02:39:21;8.07;;;7.28;;
16173;SDS011;14031;50.158;8.626;2023-06-10T02:41:48;7.47;;;6.88;;
16173;SDS011;14031;50.158;8.626;2023-06-10T02:44:15;8.13;;;7.35;;
16173;SDS011;14031;50.158;8.626;2023-06-10T02:46:43;8.23;;;7.40;;
16173;SDS011;14031;50.158;8.626;2023-06-10T02:49:10;8.05;;;7.03;;
16173;SDS011;14031;50.158;8.626;2023-06-10T02:51:37;7.88;;;7.38;;
16173;SDS011;14031;50.158;8.626;2023-06-10T02:54:04;7.95;;;7.45;;
16173;SDS011;14031;50.158;8.626;2023-06-10T02:56:31;8.30;;;7.75;;
16173;SDS011;14031;50.158;8.626;2023-06-10T02:58:58;7.47;;;6.95;;
16173;SDS011;14031;50.158;8.626;2023-06-10T03:01:25;8.23;;;7.50;;
16173;SDS011;14031;50.158;8.626;2023-06-10T03:03:53;7.38;;;6.95;;
16173;SDS011;14031;50.158;8.626;2023-06-10T03:06:21;8.45;;;7.60;;
16173;SDS011;14031;50.158;8.626;2023-06-10T03:08:49;8.07;;;7.35;;
16173;SDS011;14031;50.158;8.626;2023-06-10T03:11:16;7.90;;;7.40;;
16173;SDS011;14031;50.158;8.626;2023-06-10T03:13:44;7.97;;;7.30;;
16173;SDS011;14031;50.158;8.626;2023-06-10T03:16:11;7.47;;;6.97;;
16173;SDS011;14031;50.158;8.626;2023-06-10T03:18:38;8.48;;;7.47;;
16173;SDS011;14031;50.158;8.626;2023-06-10T03:21:06;8.27;;;7.57;;
16173;SDS011;14031;50.158;8.626;2023-06-10T03:23:33;8.50;;;7.80;;
16173;SDS011;14031;50.158;8.626;2023-06-10T03:26:00;7.80;;;7.40;;
16173;SDS011;14031;50.158;8.626;2023-06-10T03:28:27;8.55;;;7.55;;
16173;SDS011;14031;50.158;8.626;2023-06-10T03:30:54;8.05;;;7.45;;
16173;SDS011;14031;50.158;8.626;2023-06-10T03:33:21;8.15;;;7.55;;
16173;SDS011;14031;50.158;8.626;2023-06-10T03:35:48;8.60;;;8.00;;
16173;SDS011;14031;50.158;8.626;2023-06-10T03:38:16;8.35;;;7.60;;
16173;SDS011;14031;50.158;8.626;2023-06-10T03:40:43;8.80;;;7.80;;
16173;SDS011;14031;50.158;8.626;2023-06-10T03:43:09;8.82;;;7.55;;
16173;SDS011;14031;50.158;8.626;2023-06-10T03:45:36;8.32;;;7.82;;
16173;SDS011;14031;50.158;8.626;2023-06-10T03:48:03;8.18;;;7.57;;
16173;SDS011;14031;50.158;8.626;2023-06-10T03:50:31;7.85;;;7.45;;
16173;SDS011;14031;50.158;8.626;2023-06-10T03:52:58;7.57;;;7.07;;
16173;SDS011;14031;50.158;8.626;2023-06-10T03:55:26;9.18;;;8.45;;
16173;SDS011;14031;50.158;8.626;2023-06-10T03:57:53;8.20;;;7.60;;
16173;SDS011;14031;50.158;8.626;2023-06-10T04:00:19;8.68;;;7.82;;
16173;SDS011;14031;50.158;8.626;2023-06-10T04:02:47;7.60;;;6.93;;
16173;SDS011;14031;50.158;8.626;2023-06-10T04:05:16;7.88;;;7.38;;
16173;SDS011;14031;50.158;8.626;2023-06-10T04:07:45;9.05;;;8.20;;
16173;SDS011;14031;50.158;8.626;2023-06-10T04:10:13;9.07;;;7.90;;
16173;SDS011;14031;50.158;8.626;2023-06-10T04:12:42;8.43;;;7.90;;
16173;SDS011;14031;50.158;8.626;2023-06-10T04:15:10;8.68;;;7.80;;
16173;SDS011;14031;50.158;8.626;2023-06-10T04:17:38;8.68;;;8.07;;
16173;SDS011;14031;50.158;8.626;2023-06-10T04:20:05;11.57;;;10.30;;
16173;SDS011;14031;50.158;8.626;2023-06-10T04:22:34;10.93;;;10.10;;
16173;SDS011;14031;50.158;8.626;2023-06-10T04:25:01;12.95;;;11.75;;
16173;SDS011;14031;50.158;8.626;2023-06-10T04:27:28;11.13;;;10.07;;
16173;SDS011;14031;50.158;8.626;2023-06-10T04:29:56;8.38;;;7.82;;
16173;SDS011;14031;50.158;8.626;2023-06-10T04:32:23;8.48;;;7.78;;
16173;SDS011;14031;50.158;8.626;2023-06-10T04:34:50;7.97;;;7.43;;
16173;SDS011;14031;50.158;8.626;2023-06-10T04:37:17;7.88;;;7.28;;
16173;SDS011;14031;50.158;8.626;2023-06-10T04:39:45;8.65;;;7.78;;
16173;SDS011;14031;50.158;8.626;2023-06-10T04:42:11;8.13;;;7.53;;
16173;SDS011;14031;50.158;8.626;2023-06-10T04:44:38;7.72;;;7.00;;
16173;SDS011;14031;50.158;8.626;2023-06-10T04:47:07;7.65;;;7.00;;
16173;SDS011;14031;50.158;8.626;2023-06-10T04:49:34;7.32;;;6.82;;
16173;SDS011;14031;50.158;8.626;2023-06-10T04:52:01;7.13;;;6.53;;
16173;SDS011;14031;50.158;8.626;2023-06-10T04:54:29;7.65;;;6.95;;
16173;SDS011;14031;50.158;8.626;2023-06-10T04:56:56;8.93;;;6.95;;
16173;SDS011;14031;50.158;8.626;2023-06-10T04:59:23;7.97;;;7.03;;
16173;SDS011;14031;50.158;8.626;2023-06-10T05:01:50;8.23;;;7.50;;
16173;SDS011;14031;50.158;8.626;2023-06-10T05:04:18;7.63;;;6.93;;
16173;SDS011;14031;50.158;8.626;2023-06-10T05:06:44;7.82;;;7.05;;
16173;SDS011;14031;50.158;8.626;2023-06-10T05:09:11;7.03;;;6.63;;
16173;SDS011;14031;50.158;8.626;2023-06-10T05:11:38;7.45;;;6.82;;
16173;SDS011;14031;50.158;8.626;2023-06-10T05:14:05;7.93;;;7.32;;
16173;SDS011;14031;50.158;8.626;2023-06-10T05:16:31;7.32;;;6.82;;
16173;SDS011;14031;50.158;8.626;2023-06-10T05:18:58;7.63;;;7.13;;
16173;SDS011;14031;50.158;8.626;2023-06-10T05:21:27;7.10;;;6.60;;
16173;SDS011;14031;50.158;8.626;2023-06-10T05:23:53;6.80;;;6.38;;
16173;SDS011;14031;50.158;8.626;2023-06-10T05:26:20;7.35;;;6.82;;
16173;SDS011;14031;50.158;8.626;2023-06-10T05:28:47;7.53;;;6.82;;
16173;SDS011;14031;50.158;8.626;2023-06-10T05:31:14;7.55;;;6.82;;
16173;SDS011;14031;50.158;8.626;2023-06-10T05:33:41;7.40;;;6.30;;
16173;SDS011;14031;50.158;8.626;2023-06-10T05:36:08;6.55;;;6.20;;
16173;SDS011;14031;50.158;8.626;2023-06-10T05:38:36;6.95;;;6.55;;
16173;SDS011;14031;50.158;8.626;2023-06-10T05:41:02;7.78;;;6.70;;
16173;SDS011;14031;50.158;8.626;2023-06-10T05:43:29;7.05;;;6.55;;
16173;SDS011;14031;50.158;8.626;2023-06-10T05:45:56;7.20;;;6.57;;
16173;SDS011;14031;50.158;8.626;2023-06-10T05:48:23;6.75;;;6.35;;
16173;SDS011;14031;50.158;8.626;2023-06-10T05:50:50;7.38;;;6.88;;
16173;SDS011;14031;50.158;8.626;2023-06-10T05:53:16;6.60;;;5.90;;
16173;SDS011;14031;50.158;8.626;2023-06-10T05:55:45;6.47;;;5.88;;
16173;SDS011;14031;50.158;8.626;2023-06-10T05:58:13;6.68;;;6.15;;
16173;SDS011;14031;50.158;8.626;2023-06-10T06:00:40;6.50;;;5.95;;
16173;SDS011;14031;50.158;8.626;2023-06-10T06:03:07;6.88;;;6.38;;
16173;SDS011;14031;50.158;8.626;2023-06-10T06:05:34;6.25;;;5.57;;
16173;SDS011;14031;50.158;8.626;2023-06-10T06:08:03;5.88;;;5.47;;
16173;SDS011;14031;50.158;8.626;2023-06-10T06:10:30;6.05;;;5.65;;
16173;SDS011;14031;50.158;8.626;2023-06-10T06:12:58;6.47;;;5.88;;
16173;SDS011;14031;50.158;8.626;2023-06-10T06:15:26;6.82;;;6.28;;
16173;SDS011;14031;50.158;8.626;2023-06-10T06:17:53;6.18;;;5.78;;
16173;SDS011;14031;50.158;8.626;2023-06-10T06:20:20;6.45;;;5.85;;
16173;SDS011;14031;50.158;8.626;2023-06-10T06:22:48;7.65;;;6.97;;
16173;SDS011;14031;50.158;8.626;2023-06-10T06:25:15;6.45;;;6.03;;
16173;SDS011;14031;50.158;8.626;2023-06-10T06:27:42;6.00;;;5.50;;
16173;SDS011;14031;50.158;8.626;2023-06-10T06:30:10;5.88;;;5.28;;
16173;SDS011;14031;50.158;8.626;2023-06-10T06:32:37;6.38;;;5.88;;
16173;SDS011;14031;50.158;8.626;2023-06-10T06:35:04;6.18;;;5.78;;
16173;SDS011;14031;50.158;8.626;2023-06-10T06:37:33;5.88;;;5.30;;
16173;SDS011;14031;50.158;8.626;2023-06-10T06:40:00;5.55;;;5.25;;
16173;SDS011;14031;50.158;8.626;2023-06-10T06:42:28;5.90;;;5.47;;
16173;SDS011;14031;50.158;8.626;2023-06-10T06:44:55;6.32;;;5.93;;
16173;SDS011;14031;50.158;8.626;2023-06-10T06:47:23;5.30;;;4.90;;
16173;SDS011;14031;50.158;8.626;2023-06-10T06:49:51;5.57;;;5.18;;
16173;SDS011;14031;50.158;8.626;2023-06-10T06:52:18;5.43;;;5.03;;
16173;SDS011;14031;50.158;8.626;2023-06-10T06:54:45;5.50;;;5.20;;
16173;SDS011;14031;50.158;8.626;2023-06-10T06:57:11;5.28;;;4.95;;
16173;SDS011;14031;50.158;8.626;2023-06-10T06:59:38;5.45;;;5.15;;
16173;SDS011;14031;50.158;8.626;2023-06-10T07:02:05;5.07;;;4.78;;
16173;SDS011;14031;50.158;8.626;2023-06-10T07:04:33;5.15;;;4.85;;
16173;SDS011;14031;50.158;8.626;2023-06-10T07:07:00;5.32;;;5.03;;
16173;SDS011;14031;50.158;8.626;2023-06-10T07:09:27;6.07;;;5.47;;
16173;SDS011;14031;50.158;8.626;2023-06-10T07:11:54;5.45;;;5.15;;
16173;SDS011;14031;50.158;8.626;2023-06-10T07:14:21;5.93;;;5.28;;
16173;SDS011;14031;50.158;8.626;2023-06-10T07:16:47;4.78;;;4.47;;
16173;SDS011;14031;50.158;8.626;2023-06-10T07:19:14;6.03;;;5.43;;
16173;SDS011;14031;50.158;8.626;2023-06-10T07:21:42;6.18;;;5.72;;
16173;SDS011;14031;50.158;8.626;2023-06-10T07:24:09;6.00;;;5.28;;
16173;SDS011;14031;50.158;8.626;2023-06-10T07:26:36;5.72;;;5.10;;
16173;SDS011;14031;50.158;8.626;2023-06-10T07:29:03;5.82;;;5.25;;
16173;SDS011;14031;50.158;8.626;2023-06-10T07:31:30;5.68;;;5.28;;
16173;SDS011;14031;50.158;8.626;2023-06-10T07:33:56;5.90;;;5.40;;
16173;SDS011;14031;50.158;8.626;2023-06-10T07:36:23;6.10;;;5.30;;
16173;SDS011;14031;50.158;8.626;2023-06-10T07:38:53;5.45;;;5.05;;
16173;SDS011;14031;50.158;8.626;2023-06-10T07:41:20;5.85;;;5.55;;
16173;SDS011;14031;50.158;8.626;2023-06-10T07:43:50;5.32;;;4.90;;
16173;SDS011;14031;50.158;8.626;2023-06-10T07:46:19;5.88;;;5.28;;
16173;SDS011;14031;50.158;8.626;2023-06-10T07:48:46;6.03;;;5.55;;
16173;SDS011;14031;50.158;8.626;2023-06-10T07:51:13;5.53;;;5.22;;
16173;SDS011;14031;50.158;8.626;2023-06-10T07:53:40;6.30;;;5.80;;
16173;SDS011;14031;50.158;8.626;2023-06-10T07:56:08;5.55;;;5.20;;
16173;SDS011;14031;50.158;8.626;2023-06-10T07:58:35;6.32;;;5.80;;
16173;SDS011;14031;50.158;8.626;2023-06-10T08:01:02;5.20;;;4.88;;
16173;SDS011;14031;50.158;8.626;2023-06-10T08:03:29;6.03;;;5.45;;
16173;SDS011;14031;50.158;8.626;2023-06-10T08:05:56;5.75;;;5.32;;
16173;SDS011;14031;50.158;8.626;2023-06-10T08:08:22;5.32;;;4.88;;
16173;SDS011;14031;50.158;8.626;2023-06-10T08:10:49;5.82;;;5.22;;
16173;SDS011;14031;50.158;8.626;2023-06-10T08:13:17;5.82;;;5.43;;
16173;SDS011;14031;50.158;8.626;2023-06-10T08:15:44;7.47;;;5.78;;
16173;SDS011;14031;50.158;8.626;2023-06-10T08:18:12;5.53;;;5.22;;
16173;SDS011;14031;50.158;8.626;2023-06-10T08:20:39;10.63;;;6.60;;
16173;SDS011;14031;50.158;8.626;2023-06-10T08:23:06;6.10;;;5.53;;
16173;SDS011;14031;50.158;8.626;2023-06-10T08:25:33;7.18;;;6.13;;
16173;SDS011;14031;50.158;8.626;2023-06-10T08:28:00;6.97;;;6.20;;
16173;SDS011;14031;50.158;8.626;2023-06-10T08:30:28;9.70;;;5.97;;
16173;SDS011;14031;50.158;8.626;2023-06-10T08:32:55;5.70;;;5.20;;
16173;SDS011;14031;50.158;8.626;2023-06-10T08:35:22;5.68;;;5.28;;
16173;SDS011;14031;50.158;8.626;2023-06-10T08:37:49;6.10;;;5.70;;
16173;SDS011;14031;50.158;8.626;2023-06-10T08:40:16;20.92;;;17.95;;
16173;SDS011;14031;50.158;8.626;2023-06-10T08:42:43;5.90;;;5.43;;
16173;SDS011;14031;50.158;8.626;2023-06-10T08:45:16;6.13;;;5.72;;
16173;SDS011;14031;50.158;8.626;2023-06-10T08:47:45;6.10;;;5.70;;
16173;SDS011;14031;50.158;8.626;2023-06-10T08:50:15;6.15;;;5.15;;
16173;SDS011;14031;50.158;8.626;2023-06-10T08:52:43;5.55;;;5.15;;
16173;SDS011;14031;50.158;8.626;2023-06-10T08:55:13;5.70;;;5.18;;
16173;SDS011;14031;50.158;8.626;2023-06-10T08:57:44;6.15;;;5.55;;
16173;SDS011;14031;50.158;8.626;2023-06-10T09:00:13;5.55;;;5.15;;
16173;SDS011;14031;50.158;8.626;2023-06-10T09:02:43;5.75;;;5.35;;
16173;SDS011;14031;50.158;8.626;2023-06-10T09:05:12;9.15;;;5.53;;
16173;SDS011;14031;50.158;8.626;2023-06-10T09:07:40;5.55;;;5.25;;
16173;SDS011;14031;50.158;8.626;2023-06-10T09:10:07;5.93;;;5.50;;
16173;SDS011;14031;50.158;8.626;2023-06-10T09:12:35;6.15;;;5.32;;
16173;SDS011;14031;50.158;8.626;2023-06-10T09:15:03;6.38;;;5.28;;
16173;SDS011;14031;50.158;8.626;2023-06-10T09:17:31;5.20;;;5.00;;
16173;SDS011;14031;50.158;8.626;2023-06-10T09:19:59;5.63;;;5.20;;
16173;SDS011;14031;50.158;8.626;2023-06-10T09:22:27;5.57;;;5.18;;
16173;SDS011;14031;50.158;8.626;2023-06-10T09:25:02;5.38;;;4.88;;
16173;SDS011;14031;50.158;8.626;2023-06-10T09:27:30;5.65;;;5.30;;
16173;SDS011;14031;50.158;8.626;2023-06-10T09:29:58;6.15;;;5.65;;
16173;SDS011;14031;50.158;8.626;2023-06-10T09:32:25;5.25;;;4.85;;
16173;SDS011;14031;50.158;8.626;2023-06-10T09:34:54;6.25;;;5.72;;
16173;SDS011;14031;50.158;8.626;2023-06-10T09:37:22;5.75;;;5.30;;
16173;SDS011;14031;50.158;8.626;2023-06-10T09:40:00;8.85;;;4.70;;
16173;SDS011;14031;50.158;8.626;2023-06-10T09:42:32;5.20;;;4.80;;
16173;SDS011;14031;50.158;8.626;2023-06-10T09:45:00;4.63;;;4.43;;
16173;SDS011;14031;50.158;8.626;2023-06-10T09:47:27;5.88;;;4.78;;
16173;SDS011;14031;50.158;8.626;2023-06-10T09:49:54;5.60;;;5.07;;
16173;SDS011;14031;50.158;8.626;2023-06-10T09:52:22;5.18;;;4.13;;
16173;SDS011;14031;50.158;8.626;2023-06-10T09:54:50;5.32;;;5.03;;
16173;SDS011;14031;50.158;8.626;2023-06-10T09:57:17;6.22;;;4.70;;
16173;SDS011;14031;50.158;8.626;2023-06-10T09:59:44;4.75;;;4.55;;
16173;SDS011;14031;50.158;8.626;2023-06-10T10:02:13;5.20;;;4.90;;
16173;SDS011;14031;50.158;8.626;2023-06-10T10:04:41;5.47;;;5.18;;
16173;SDS011;14031;50.158;8.626;2023-06-10T10:07:08;5.60;;;4.85;;
16173;SDS011;14031;50.158;8.626;2023-06-10T10:09:36;5.00;;;4.28;;
16173;SDS011;14031;50.158;8.626;2023-06-10T10:12:04;6.45;;;4.68;;
16173;SDS011;14031;50.158;8.626;2023-06-10T10:14:36;5.20;;;4.55;;
16173;SDS011;14031;50.158;8.626;2023-06-10T10:17:04;5.07;;;4.60;;
16173;SDS011;14031;50.158;8.626;2023-06-10T10:19:33;5.18;;;4.78;;
16173;SDS011;14031;50.158;8.626;2023-06-10T10:22:07;6.60;;;4.80;;
16173;SDS011;14031;50.158;8.626;2023-06-10T10:24:39;5.65;;;5.13;;
16173;SDS011;14031;50.158;8.626;2023-06-10T10:27:17;5.78;;;5.47;;
16173;SDS011;14031;50.158;8.626;2023-06-10T10:29:47;5.00;;;4.47;;
16173;SDS011;14031;50.158;8.626;2023-06-10T10:32:17;4.57;;;4.18;;
16173;SDS011;14031;50.158;8.626;2023-06-10T10:34:48;4.88;;;4.43;;
16173;SDS011;14031;50.158;8.626;2023-06-10T10:37:19;4.55;;;4.25;;
16173;SDS011;14031;50.158;8.626;2023-06-10T10:39:47;5.80;;;4.65;;
16173;SDS011;14031;50.158;8.626;2023-06-10T10:42:15;5.25;;;4.55;;
16173;SDS011;14031;50.158;8.626;2023-06-10T10:44:43;7.65;;;5.20;;
16173;SDS011;14031;50.158;8.626;2023-06-10T10:47:10;6.13;;;5.03;;
16173;SDS011;14031;50.158;8.626;2023-06-10T10:49:41;4.50;;;4.28;;
16173;SDS011;14031;50.158;8.626;2023-06-10T10:52:11;4.97;;;4.47;;
16173;SDS011;14031;50.158;8.626;2023-06-10T10:54:39;5.50;;;4.32;;
16173;SDS011;14031;50.158;8.626;2023-06-10T10:57:12;4.65;;;4.35;;
16173;SDS011;14031;50.158;8.626;2023-06-10T10:59:43;6.95;;;4.63;;
16173;SDS011;14031;50.158;8.626;2023-06-10T11:02:33;4.60;;;4.30;;
16173;SDS011;14031;50.158;8.626;2023-06-10T11:05:07;4.97;;;3.92;;
16173;SDS011;14031;50.158;8.626;2023-06-10T11:07:35;5.82;;;4.25;;
16173;SDS011;14031;50.158;8.626;2023-06-10T11:10:02;4.78;;;4.38;;
16173;SDS011;14031;50.158;8.626;2023-06-10T11:12:52;5.90;;;4.13;;
16173;SDS011;14031;50.158;8.626;2023-06-10T11:15:20;4.60;;;4.30;;
16173;SDS011;14031;50.158;8.626;2023-06-10T11:20:59;11.95;;;4.20;;
16173;SDS011;14031;50.158;8.626;2023-06-10T11:23:32;17.20;;;4.55;;
16173;SDS011;14031;50.158;8.626;2023-06-10T11:26:16;4.00;;;3.80;;
16173;SDS011;14031;50.158;8.626;2023-06-10T11:29:05;3.88;;;3.67;;
16173;SDS011;14031;50.158;8.626;2023-06-10T11:31:42;6.07;;;3.88;;
16173;SDS011;14031;50.158;8.626;2023-06-10T11:34:11;4.13;;;3.92;;
16173;SDS011;14031;50.158;8.626;2023-06-10T11:36:39;3.50;;;3.40;;
16173;SDS011;14031;50.158;8.626;2023-06-10T11:39:08;3.72;;;3.53;;
16173;SDS011;14031;50.158;8.626;2023-06-10T11:41:36;4.05;;;3.83;;
16173;SDS011;14031;50.158;8.626;2023-06-10T11:44:08;4.25;;;4.00;;
16173;SDS011;14031;50.158;8.626;2023-06-10T11:46:35;4.00;;;3.58;;
16173;SDS011;14031;50.158;8.626;2023-06-10T11:49:03;4.30;;;3.85;;
16173;SDS011;14031;50.158;8.626;2023-06-10T11:51:32;5.07;;;3.70;;
16173;SDS011;14031;50.158;8.626;2023-06-10T11:54:00;4.00;;;3.80;;
16173;SDS011;14031;50.158;8.626;2023-06-10T11:56:29;3.80;;;3.53;;
16173;SDS011;14031;50.158;8.626;2023-06-10T11:58:57;3.80;;;3.60;;
16173;SDS011;14031;50.158;8.626;2023-06-10T12:01:31;7.03;;;3.97;;
16173;SDS011;14031;50.158;8.626;2023-06-10T12:03:59;4.20;;;3.90;;
16173;SDS011;14031;50.158;8.626;2023-06-10T12:06:27;7.32;;;3.88;;
16173;SDS011;14031;50.158;8.626;2023-06-10T12:09:03;4.32;;;4.03;;
16173;SDS011;14031;50.158;8.626;2023-06-10T12:11:30;4.38;;;4.18;;
16173;SDS011;14031;50.158;8.626;2023-06-10T12:13:57;3.58;;;3.28;;
16173;SDS011;14031;50.158;8.626;2023-06-10T12:16:24;4.13;;;3.83;;
16173;SDS011;14031;50.158;8.626;2023-06-10T12:19:00;4.13;;;3.90;;
16173;SDS011;14031;50.158;8.626;2023-06-10T12:21:27;5.03;;;3.95;;
16173;SDS011;14031;50.158;8.626;2023-06-10T12:24:01;4.60;;;4.20;;
16173;SDS011;14031;50.158;8.626;2023-06-10T12:26:36;4.45;;;3.97;;
16173;SDS011;14031;50.158;8.626;2023-06-10T12:29:17;4.72;;;4.28;;
16173;SDS011;14031;50.158;8.626;2023-06-10T12:31:58;4.82;;;3.97;;
16173;SDS011;14031;50.158;8.626;2023-06-10T12:34:35;4.15;;;3.90;;
16173;SDS011;14031;50.158;8.626;2023-06-10T12:37:03;4.55;;;4.10;;
16173;SDS011;14031;50.158;8.626;2023-06-10T12:39:31;4.75;;;4.22;;
16173;SDS011;14031;50.158;8.626;2023-06-10T12:41:59;3.85;;;3.65;;
16173;SDS011;14031;50.158;8.626;2023-06-10T12:44:32;4.05;;;3.72;;
16173;SDS011;14031;50.158;8.626;2023-06-10T12:47:00;4.22;;;4.00;;
16173;SDS011;14031;50.158;8.626;2023-06-10T12:49:32;4.32;;;3.92;;
16173;SDS011;14031;50.158;8.626;2023-06-10T12:52:01;4.80;;;4.40;;
16173;SDS011;14031;50.158;8.626;2023-06-10T12:54:28;4.25;;;4.00;;
16173;SDS011;14031;50.158;8.626;2023-06-10T12:56:55;4.07;;;3.78;;
16173;SDS011;14031;50.158;8.626;2023-06-10T12:59:22;3.97;;;3.78;;
16173;SDS011;14031;50.158;8.626;2023-06-10T13:01:50;4.05;;;3.85;;
16173;SDS011;14031;50.158;8.626;2023-06-10T13:04:17;4.22;;;3.83;;
16173;SDS011;14031;50.158;8.626;2023-06-10T13:06:45;4.13;;;3.78;;
16173;SDS011;14031;50.158;8.626;2023-06-10T13:09:14;3.70;;;3.60;;
16173;SDS011;14031;50.158;8.626;2023-06-10T13:11:41;4.03;;;3.67;;
16173;SDS011;14031;50.158;8.626;2023-06-10T13:14:09;4.38;;;4.07;;
16173;SDS011;14031;50.158;8.626;2023-06-10T13:16:36;4.68;;;4.25;;
16173;SDS011;14031;50.158;8.626;2023-06-10T13:19:04;4.00;;;3.70;;
16173;SDS011;14031;50.158;8.626;2023-06-10T13:21:31;4.38;;;4.07;;
16173;SDS011;14031;50.158;8.626;2023-06-10T13:23:59;4.45;;;4.25;;
16173;SDS011;14031;50.158;8.626;2023-06-10T13:26:26;4.30;;;4.00;;
16173;SDS011;14031;50.158;8.626;2023-06-10T13:28:53;4.78;;;4.45;;
16173;SDS011;14031;50.158;8.626;2023-06-10T13:31:20;5.63;;;5.05;;
16173;SDS011;14031;50.158;8.626;2023-06-10T13:33:47;4.05;;;3.85;;
16173;SDS011;14031;50.158;8.626;2023-06-10T13:36:14;4.40;;;4.20;;
16173;SDS011;14031;50.158;8.626;2023-06-10T13:38:40;4.78;;;4.30;;
16173;SDS011;14031;50.158;8.626;2023-06-10T13:41:09;4.15;;;3.95;;
16173;SDS011;14031;50.158;8.626;2023-06-10T13:43:37;4.45;;;4.05;;
16173;SDS011;14031;50.158;8.626;2023-06-10T13:46:04;4.25;;;3.95;;
16173;SDS011;14031;50.158;8.626;2023-06-10T13:48:31;8.10;;;4.85;;
16173;SDS011;14031;50.158;8.626;2023-06-10T13:50:58;4.75;;;4.40;;
16173;SDS011;14031;50.158;8.626;2023-06-10T13:53:25;4.72;;;4.32;;
16173;SDS011;14031;50.158;8.626;2023-06-10T13:55:52;4.07;;;3.75;;
16173;SDS011;14031;50.158;8.626;2023-06-10T13:58:20;3.40;;;3.30;;
16173;SDS011;14031;50.158;8.626;2023-06-10T14:00:47;4.43;;;3.80;;
16173;SDS011;14031;50.158;8.626;2023-06-10T14:03:14;4.88;;;3.55;;
16173;SDS011;14031;50.158;8.626;2023-06-10T14:05:41;2.90;;;2.80;;
16173;SDS011;14031;50.158;8.626;2023-06-10T14:08:08;8.50;;;3.60;;
16173;SDS011;14031;50.158;8.626;2023-06-10T14:10:34;5.22;;;3.05;;
16173;SDS011;14031;50.158;8.626;2023-06-10T14:13:01;13.27;;;3.63;;
16173;SDS011;14031;50.158;8.626;2023-06-10T14:15:29;3.80;;;3.47;;
16173;SDS011;14031;50.158;8.626;2023-06-10T14:17:57;3.45;;;3.25;;
16173;SDS011;14031;50.158;8.626;2023-06-10T14:20:24;3.17;;;3.00;;
16173;SDS011;14031;50.158;8.626;2023-06-10T14:22:51;3.85;;;2.95;;
16173;SDS011;14031;50.158;8.626;2023-06-10T14:25:18;3.03;;;2.83;;
16173;SDS011;14031;50.158;8.626;2023-06-10T14:27:45;3.10;;;2.90;;
16173;SDS011;14031;50.158;8.626;2023-06-10T14:30:12;2.97;;;2.78;;
16173;SDS011;14031;50.158;8.626;2023-06-10T14:32:41;3.42;;;3.13;;
16173;SDS011;14031;50.158;8.626;2023-06-10T14:35:08;3.42;;;3.30;;
16173;SDS011;14031;50.158;8.626;2023-06-10T14:37:35;3.05;;;2.92;;
16173;SDS011;14031;50.158;8.626;2023-06-10T14:40:02;3.60;;;3.30;;
16173;SDS011;14031;50.158;8.626;2023-06-10T14:42:30;4.38;;;4.18;;
16173;SDS011;14031;50.158;8.626;2023-06-10T14:44:57;4.50;;;4.15;;
16173;SDS011;14031;50.158;8.626;2023-06-10T14:47:24;3.08;;;2.97;;
16173;SDS011;14031;50.158;8.626;2023-06-10T14:49:52;3.92;;;2.88;;
16173;SDS011;14031;50.158;8.626;2023-06-10T14:52:21;4.22;;;3.30;;
16173;SDS011;14031;50.158;8.626;2023-06-10T14:54:48;3.20;;;2.90;;
16173;SDS011;14031;50.158;8.626;2023-06-10T14:57:15;3.50;;;3.30;;